Aérodrome :
LOGIN :

S'inscrire | Disclaimer

   EN    FR    IT 

 










Légende :    VFR   VFR Marginal   IFR   IFR Intensif   IFR Très Intensif
Visi : 
Plafond : 
>= 8 km
>= 3000ft
5 à 8 km
1000 à 3000 ft
1500m à 5 km
500 à 1000 ft
800 à 1500m
200 à 500 ft
< 800m
< 200 ft
Symboles :   Orages  Brouillard  Fortes neiges  Fortes précipitations  Vent > 20 kt
SIGMETs :   Divers  Orages  Givrage  Turbulence  Onde Orograph.  Cendres Volcan.







- Altitude de l'aérodrome : 194 ft
- Code IATA : ANE
- Voir les cartes d'approche


LFJR - Angers Marcé

DERNIER METAR :
  • 121800Z AUTO 16004KT CAVOK 02/01 Q1015

METARs EXPIRÉS :
  • 121730Z AUTO 15003KT CAVOK 02/M00 Q1015
  • 121700Z AUTO 11001KT CAVOK 02/00 Q1015 NOSIG
  • 121630Z AUTO 20001KT CAVOK 04/01 Q1015 NOSIG
  • 121600Z AUTO 23002KT CAVOK 05/01 Q1015 NOSIG
  • 121530Z AUTO 22005KT CAVOK 07/03 Q1014 NOSIG

TAF TAF LFJR
Valide du 12 à 15h jusqu'au 13 à 00h UTC


121400Z 1215/1224 22003KT CAVOK
Pas de NOTAMs connus pour ce terrain.
1 SIGMET publié pour la FIR Brest (LFRR) :
 
Turbulence forte
LFRR SIGMET 6 VALID 121600/122000 LFPW
LFRR BREST FIR/UIR SEV TURB FCST WI N4330 W00145 - N4415 W00430 - N4730 W00430 - N4730 W00215 - N4330 W00145 FL250/400 MOV SE 30KT WKN=



MET'MAP, la Météo Aéronautique d'un coup d'oeil ! - Copyright ORBIFLY Décembre 2007 - Disclaimer

ORBIFLY MET'MAP TEAM :

Programmation & Développement : Alexandra Zaïnal
Conception & Développement : Baudouin d'Aumeries
Co-Programmation & Développement : Marc-Olivier Méhu
Soutien technique & logistique : Manuel Goepfert

Contact : metmap@orbifly.com




SOURCES & CREDITS :

   NOAA